Ghardaia, Algeria
Current Conditions -  °F | °C
As of 2:00 AM on Tuesday 21 Oct 2014 (Local Time) from DAUG Reporting Station
Clear Clear  
Wind Chill: 70°   Ceiling: Unl
Heat Index: 70°   Visibility: 6mi
Dew Point: 28°   Wind: 0mph
Humidity: 21%   Direction: NA
Pressure: 30.18"   Gusts: NA
Location:  32.49°N, 3.68°E
Report Text: DAUG 210100Z 00000KT CAVOK 21/M02 Q1022
Loading
Personal Weather Stations






























Interactive Weather Map New forecast layout! Learn more

10-Day Weather Forecast

Advertisements
Track Severe Weather on mobile